createdAt,value
2023-05-06T00:02:09.633Z,11.70
2023-05-06T00:04:37.080Z,11.70
2023-05-06T00:07:04.095Z,11.70
2023-05-06T00:09:30.799Z,11.70
2023-05-06T00:11:57.469Z,11.70
2023-05-06T00:14:24.116Z,11.70
2023-05-06T00:16:51.031Z,11.70
2023-05-06T00:19:17.741Z,11.70
2023-05-06T00:21:44.511Z,11.70
2023-05-06T00:24:11.405Z,11.60
2023-05-06T00:26:38.141Z,11.50
2023-05-06T00:29:04.856Z,11.40
2023-05-06T00:31:31.522Z,11.20
2023-05-06T00:33:58.177Z,11.20
2023-05-06T00:36:24.803Z,11.10
2023-05-06T00:38:51.506Z,11.00
2023-05-06T00:41:18.236Z,10.90
2023-05-06T00:43:44.848Z,11.00
2023-05-06T00:46:11.726Z,10.90
2023-05-06T00:48:38.846Z,10.80
2023-05-06T00:51:06.217Z,10.80
2023-05-06T00:53:33.474Z,10.70
2023-05-06T00:56:00.471Z,10.80
2023-05-06T00:58:27.211Z,10.70
2023-05-06T01:00:55.199Z,10.70
2023-05-06T01:03:22.355Z,10.70
2023-05-06T01:06:08.791Z,10.60
2023-05-06T01:08:50.341Z,10.60
2023-05-06T01:11:32.165Z,10.50
2023-05-06T01:14:21.478Z,10.50
2023-05-06T01:16:54.081Z,10.50
2023-05-06T01:19:38.903Z,10.40
2023-05-06T01:22:07.264Z,10.40
2023-05-06T01:24:42.052Z,10.50
2023-05-06T01:27:10.537Z,10.60
2023-05-06T01:29:39.659Z,10.70
2023-05-06T01:32:49.660Z,10.80
2023-05-06T01:35:56.824Z,10.80
2023-05-06T01:38:32.763Z,10.90
2023-05-06T01:41:01.202Z,10.80
2023-05-06T01:43:33.204Z,10.80
2023-05-06T01:46:01.219Z,10.70
2023-05-06T01:48:30.439Z,10.80
2023-05-06T01:50:57.198Z,10.80
2023-05-06T01:53:23.813Z,10.70
2023-05-06T01:55:50.627Z,10.70
2023-05-06T01:58:17.264Z,10.60
2023-05-06T02:00:43.913Z,10.50
2023-05-06T02:03:11.993Z,10.40
2023-05-06T02:05:38.784Z,10.30
2023-05-06T02:08:05.589Z,10.30
2023-05-06T02:10:32.700Z,10.30
2023-05-06T02:13:03.965Z,10.20
2023-05-06T02:15:31.077Z,10.20
2023-05-06T02:17:59.792Z,10.20
2023-05-06T02:20:26.697Z,10.20
2023-05-06T02:22:53.294Z,10.10
2023-05-06T02:25:19.903Z,10.10
2023-05-06T02:27:46.506Z,10.10
2023-05-06T02:30:38.180Z,10.20
2023-05-06T02:33:04.845Z,10.20
2023-05-06T02:35:31.477Z,10.20
2023-05-06T02:37:58.661Z,10.20
2023-05-06T02:40:26.964Z,10.20
2023-05-06T02:42:53.672Z,10.20
2023-05-06T02:45:20.319Z,10.30
2023-05-06T02:47:46.970Z,10.30
2023-05-06T02:50:13.597Z,10.30
2023-05-06T02:52:40.228Z,10.20
2023-05-06T02:55:07.507Z,10.30
2023-05-06T02:57:34.368Z,10.30
2023-05-06T03:00:00.961Z,10.40
2023-05-06T03:02:27.670Z,10.40
2023-05-06T03:04:54.303Z,10.40
2023-05-06T03:07:21.034Z,10.40
2023-05-06T03:09:48.016Z,10.40
2023-05-06T03:12:15.489Z,10.40
2023-05-06T03:14:42.310Z,10.30
2023-05-06T03:17:08.902Z,10.40
2023-05-06T03:19:36.912Z,10.30
2023-05-06T03:22:05.674Z,10.30
2023-05-06T03:24:34.485Z,10.30
2023-05-06T03:27:04.137Z,10.30
2023-05-06T03:29:31.442Z,10.30
2023-05-06T03:32:49.854Z,10.30
2023-05-06T03:35:23.521Z,10.30
2023-05-06T03:37:54.521Z,10.30
2023-05-06T03:40:23.383Z,10.40
2023-05-06T03:42:51.072Z,10.30
2023-05-06T03:45:20.841Z,10.30
2023-05-06T03:47:48.407Z,10.30
2023-05-06T03:50:17.217Z,10.30
2023-05-06T03:52:43.982Z,10.30
2023-05-06T03:55:11.631Z,10.30
2023-05-06T03:57:38.942Z,10.30
2023-05-06T04:00:07.712Z,10.30
2023-05-06T04:02:43.471Z,10.30
2023-05-06T04:05:16.209Z,10.30
2023-05-06T04:07:44.406Z,10.20
2023-05-06T04:10:11.390Z,10.10
2023-05-06T04:12:39.698Z,10.10
2023-05-06T04:15:07.780Z,10.10
2023-05-06T04:17:34.875Z,10.10
2023-05-06T04:20:08.742Z,10.10
2023-05-06T04:22:35.584Z,10.20
2023-05-06T04:25:02.517Z,10.20
2023-05-06T04:27:32.063Z,10.30
2023-05-06T04:29:59.943Z,10.30
2023-05-06T04:32:28.608Z,10.30
2023-05-06T04:34:56.706Z,10.40
2023-05-06T04:37:24.435Z,10.50
2023-05-06T04:40:04.091Z,10.60
2023-05-06T04:42:33.939Z,10.60
2023-05-06T04:45:09.381Z,10.60
2023-05-06T04:47:38.098Z,10.50
2023-05-06T04:50:05.972Z,10.50
2023-05-06T04:52:32.682Z,10.50
2023-05-06T04:54:59.470Z,10.50
2023-05-06T04:57:26.285Z,10.60
2023-05-06T04:59:54.953Z,10.70
2023-05-06T05:02:22.060Z,10.70
2023-05-06T05:04:49.686Z,10.60
2023-05-06T05:07:16.408Z,10.80
2023-05-06T05:09:43.023Z,10.80
2023-05-06T05:12:09.697Z,10.80
2023-05-06T05:14:40.426Z,10.80
2023-05-06T05:17:08.602Z,10.80
2023-05-06T05:19:37.013Z,10.90
2023-05-06T05:22:03.709Z,11.00
2023-05-06T05:24:32.503Z,10.90
2023-05-06T05:26:59.128Z,11.00
2023-05-06T05:29:26.311Z,11.10
2023-05-06T05:31:54.173Z,11.10
2023-05-06T05:34:20.866Z,11.30
2023-05-06T05:36:49.085Z,11.10
2023-05-06T05:39:15.841Z,11.30
2023-05-06T05:41:45.540Z,11.20
2023-05-06T05:44:12.806Z,11.30
2023-05-06T05:46:40.761Z,11.40
2023-05-06T05:49:10.205Z,11.50
2023-05-06T05:51:37.072Z,11.50
2023-05-06T05:54:05.724Z,11.60
2023-05-06T05:56:32.931Z,11.70
2023-05-06T05:59:00.581Z,11.60
2023-05-06T06:01:28.044Z,11.60
2023-05-06T06:03:56.349Z,11.70
2023-05-06T06:06:24.257Z,11.70
2023-05-06T06:08:52.310Z,11.70
2023-05-06T06:11:19.888Z,11.70
2023-05-06T06:13:46.598Z,11.70
2023-05-06T06:16:14.078Z,11.80
2023-05-06T06:18:40.723Z,11.70
2023-05-06T06:21:07.652Z,11.70
2023-05-06T06:23:35.087Z,11.80
2023-05-06T06:26:03.751Z,11.90
2023-05-06T06:28:32.611Z,11.90
2023-05-06T06:30:59.397Z,12.00
2023-05-06T06:33:26.052Z,12.00
2023-05-06T06:35:52.714Z,12.10
2023-05-06T06:38:19.398Z,12.20
2023-05-06T06:40:46.001Z,12.20
2023-05-06T06:43:12.650Z,12.30
2023-05-06T06:45:50.960Z,12.30
2023-05-06T06:48:17.758Z,12.40
2023-05-06T06:50:44.361Z,12.40
2023-05-06T06:53:11.360Z,12.40
2023-05-06T06:55:37.995Z,12.40
2023-05-06T06:58:04.625Z,12.60
2023-05-06T07:00:31.310Z,12.60
2023-05-06T07:02:58.034Z,12.60
2023-05-06T07:05:26.787Z,12.50
2023-05-06T07:07:53.543Z,12.70
2023-05-06T07:10:20.153Z,12.80
2023-05-06T07:12:46.893Z,12.50
2023-05-06T07:15:13.737Z,12.70
2023-05-06T07:17:40.551Z,13.10
2023-05-06T07:20:07.797Z,13.20
2023-05-06T07:22:34.485Z,13.10
2023-05-06T07:25:01.061Z,13.40
2023-05-06T07:27:30.212Z,13.60
2023-05-06T07:29:56.989Z,13.90
2023-05-06T07:32:23.714Z,14.30
2023-05-06T07:35:06.009Z,14.20
2023-05-06T07:37:32.751Z,14.40
2023-05-06T07:39:59.430Z,14.30
2023-05-06T07:42:26.073Z,13.90
2023-05-06T07:44:52.679Z,13.90
2023-05-06T07:47:31.288Z,14.20
2023-05-06T07:49:58.748Z,14.30
2023-05-06T07:52:25.960Z,14.40
2023-05-06T07:54:53.081Z,14.20
2023-05-06T07:57:19.694Z,14.10
2023-05-06T07:59:51.031Z,14.00
2023-05-06T08:02:18.211Z,14.10
2023-05-06T08:04:46.236Z,14.30
2023-05-06T08:07:12.930Z,14.60
2023-05-06T08:09:39.552Z,14.60
2023-05-06T08:12:06.242Z,14.70
2023-05-06T08:14:32.898Z,14.40
2023-05-06T08:16:59.546Z,14.30
2023-05-06T08:19:26.725Z,14.50
2023-05-06T08:21:53.422Z,14.80
2023-05-06T08:24:20.539Z,14.90
2023-05-06T08:26:47.172Z,14.80
2023-05-06T08:29:13.768Z,15.10
2023-05-06T08:31:40.500Z,15.10
2023-05-06T08:34:07.266Z,15.10
2023-05-06T08:36:33.900Z,15.30
2023-05-06T08:39:00.612Z,15.50
2023-05-06T08:41:30.280Z,15.80
2023-05-06T08:43:58.261Z,16.40
2023-05-06T08:46:25.494Z,16.50
2023-05-06T08:48:53.003Z,16.60
2023-05-06T08:51:26.082Z,16.60
2023-05-06T08:53:54.496Z,16.50
2023-05-06T08:56:23.826Z,15.80
2023-05-06T08:58:51.962Z,15.30
2023-05-06T09:01:18.706Z,15.30
2023-05-06T09:03:47.112Z,15.20
2023-05-06T09:06:13.705Z,15.10
2023-05-06T09:08:40.531Z,15.20
2023-05-06T09:11:28.487Z,15.90
2023-05-06T09:14:15.731Z,16.90
2023-05-06T09:16:44.849Z,18.10
2023-05-06T09:19:12.187Z,18.30
2023-05-06T09:21:47.981Z,19.00
2023-05-06T09:24:15.792Z,19.40
2023-05-06T09:26:44.561Z,19.60
2023-05-06T09:29:11.488Z,19.60
2023-05-06T09:31:43.104Z,19.30
2023-05-06T09:34:10.787Z,19.20
2023-05-06T09:36:37.976Z,19.00
2023-05-06T09:39:05.401Z,18.70
2023-05-06T09:41:32.438Z,18.90
2023-05-06T09:43:59.402Z,19.40
2023-05-06T09:46:30.286Z,19.40
2023-05-06T09:48:58.127Z,19.60
2023-05-06T09:51:28.008Z,19.50
2023-05-06T09:53:56.509Z,19.10
2023-05-06T09:56:24.672Z,19.00
2023-05-06T09:58:54.251Z,19.20
2023-05-06T10:01:32.495Z,18.60
2023-05-06T10:04:08.049Z,18.60
2023-05-06T10:06:36.913Z,19.20
2023-05-06T10:09:04.254Z,19.50
2023-05-06T10:11:31.677Z,19.90
2023-05-06T10:14:00.278Z,20.60
2023-05-06T10:16:28.112Z,21.20
2023-05-06T10:18:56.026Z,21.20
2023-05-06T10:21:27.366Z,20.70
2023-05-06T10:24:01.999Z,20.20
2023-05-06T10:26:30.806Z,19.50
2023-05-06T10:28:59.420Z,19.20
2023-05-06T10:31:27.271Z,19.00
2023-05-06T10:33:54.809Z,19.60
2023-05-06T10:36:28.363Z,19.30
2023-05-06T10:38:56.795Z,19.10
2023-05-06T10:41:26.024Z,19.40
2023-05-06T10:43:56.716Z,19.90
2023-05-06T10:46:26.095Z,20.00
2023-05-06T10:49:06.243Z,19.50
2023-05-06T10:51:34.265Z,19.10
2023-05-06T10:54:03.781Z,18.40
2023-05-06T10:56:50.598Z,18.60
2023-05-06T10:59:30.962Z,19.20
2023-05-06T11:02:04.603Z,18.80
2023-05-06T11:04:31.570Z,18.50
2023-05-06T11:07:13.322Z,18.80
2023-05-06T11:10:01.676Z,19.60
2023-05-06T11:12:49.369Z,20.10
2023-05-06T11:15:39.590Z,19.90
2023-05-06T11:18:24.572Z,19.90
2023-05-06T11:21:12.857Z,20.10
2023-05-06T11:23:43.053Z,20.50
2023-05-06T11:26:11.361Z,20.90
2023-05-06T11:28:42.960Z,21.40
2023-05-06T11:31:10.231Z,21.50
2023-05-06T11:33:37.638Z,22.00
2023-05-06T11:36:05.289Z,21.70
2023-05-06T11:38:45.827Z,20.70
2023-05-06T11:41:13.299Z,20.40
2023-05-06T11:43:45.605Z,20.80
2023-05-06T11:46:51.469Z,21.10
2023-05-06T11:49:18.110Z,20.80
2023-05-06T11:51:44.930Z,20.90
2023-05-06T11:54:12.009Z,22.30
2023-05-06T11:56:47.027Z,22.90
2023-05-06T11:59:14.041Z,23.30
2023-05-06T12:01:45.233Z,23.20
2023-05-06T12:04:12.756Z,22.40
2023-05-06T12:06:40.065Z,21.60
2023-05-06T12:09:10.855Z,22.10
2023-05-06T12:11:39.226Z,22.10
2023-05-06T12:14:07.915Z,22.60
2023-05-06T12:16:35.872Z,23.60
2023-05-06T12:19:03.333Z,23.50
2023-05-06T12:21:30.885Z,23.10
2023-05-06T12:23:59.681Z,23.10
2023-05-06T12:26:32.026Z,22.80
2023-05-06T12:29:07.692Z,23.50
2023-05-06T12:31:34.645Z,23.30
2023-05-06T12:34:01.501Z,22.30
2023-05-06T12:36:28.464Z,21.90
2023-05-06T12:39:01.942Z,22.20
2023-05-06T12:41:43.515Z,22.30
2023-05-06T12:44:37.332Z,22.20
2023-05-06T12:47:21.423Z,22.40
2023-05-06T12:50:00.659Z,22.30
2023-05-06T12:52:29.640Z,22.50
2023-05-06T12:54:57.077Z,22.50
2023-05-06T12:57:23.729Z,22.40
2023-05-06T12:59:50.589Z,22.10
2023-05-06T13:02:17.688Z,22.20
2023-05-06T13:04:46.564Z,21.80
2023-05-06T13:07:13.178Z,22.40
2023-05-06T13:09:39.793Z,22.80
2023-05-06T13:12:07.145Z,23.00
2023-05-06T13:14:33.780Z,23.10
2023-05-06T13:17:01.174Z,23.50
2023-05-06T13:19:32.801Z,23.10
2023-05-06T13:22:00.830Z,23.00
2023-05-06T13:24:28.004Z,23.10
2023-05-06T13:26:56.254Z,22.70
2023-05-06T13:29:23.455Z,22.80
2023-05-06T13:31:50.215Z,21.90
2023-05-06T13:34:16.908Z,21.00
2023-05-06T13:36:43.865Z,20.80
2023-05-06T13:39:10.514Z,20.90
2023-05-06T13:41:37.245Z,21.50
2023-05-06T13:44:03.992Z,22.50
2023-05-06T13:46:31.245Z,22.30
2023-05-06T13:48:57.991Z,22.30
2023-05-06T13:51:29.184Z,21.90
2023-05-06T13:53:55.885Z,21.70
2023-05-06T13:56:22.497Z,21.20
2023-05-06T13:58:49.200Z,20.80
2023-05-06T14:01:15.880Z,20.30
2023-05-06T14:03:42.558Z,20.10
2023-05-06T14:06:09.263Z,20.20
2023-05-06T14:08:36.000Z,20.70
2023-05-06T14:11:02.923Z,21.60
2023-05-06T14:13:31.291Z,22.00
2023-05-06T14:15:59.224Z,22.10
2023-05-06T14:18:29.352Z,22.20
2023-05-06T14:20:56.370Z,22.00
2023-05-06T14:23:22.996Z,22.20
2023-05-06T14:25:49.882Z,21.90
2023-05-06T14:28:17.011Z,22.10
2023-05-06T14:30:44.322Z,21.70
2023-05-06T14:33:11.477Z,22.10
2023-05-06T14:35:42.500Z,21.90
2023-05-06T14:38:10.523Z,22.20
2023-05-06T14:40:38.651Z,22.20
2023-05-06T14:43:07.082Z,21.60
2023-05-06T14:45:33.740Z,21.60
2023-05-06T14:48:00.753Z,21.90
2023-05-06T14:50:27.663Z,22.10
2023-05-06T14:52:54.237Z,21.60
2023-05-06T14:55:21.094Z,21.60
2023-05-06T14:57:47.855Z,21.20
2023-05-06T15:00:15.033Z,21.60
2023-05-06T15:02:41.998Z,22.00
2023-05-06T15:05:09.946Z,22.10
2023-05-06T15:07:37.161Z,22.70
2023-05-06T15:10:04.108Z,23.00
2023-05-06T15:12:30.977Z,22.30
2023-05-06T15:14:57.739Z,22.90
2023-05-06T15:17:24.777Z,22.80
2023-05-06T15:19:51.571Z,22.60
2023-05-06T15:22:18.277Z,22.50
2023-05-06T15:24:45.440Z,21.70
2023-05-06T15:27:12.268Z,21.50
2023-05-06T15:29:39.329Z,21.70
2023-05-06T15:32:06.217Z,21.80
2023-05-06T15:34:33.003Z,22.20
2023-05-06T15:37:01.737Z,22.20
2023-05-06T15:39:28.605Z,22.60
2023-05-06T15:41:57.935Z,23.00
2023-05-06T15:44:24.550Z,22.80
2023-05-06T15:46:53.407Z,23.00
2023-05-06T15:53:40.483Z,22.30
2023-05-06T15:56:17.663Z,21.40
2023-05-06T15:58:45.669Z,21.80
2023-05-06T16:01:13.177Z,22.00
2023-05-06T16:03:42.931Z,21.80
2023-05-06T16:06:11.045Z,21.90
2023-05-06T16:08:38.761Z,22.00
2023-05-06T16:11:05.447Z,22.00
2023-05-06T16:13:32.404Z,22.10
2023-05-06T16:16:01.270Z,21.80
2023-05-06T16:18:28.230Z,22.00
2023-05-06T16:20:54.839Z,22.10
2023-05-06T16:23:21.681Z,22.20
2023-05-06T16:25:48.554Z,22.60
2023-05-06T16:28:15.239Z,23.10
2023-05-06T16:30:44.503Z,22.90
2023-05-06T16:33:12.064Z,22.90
2023-05-06T16:35:39.047Z,23.10
2023-05-06T16:38:06.040Z,23.20
2023-05-06T16:40:40.226Z,23.20
2023-05-06T16:43:06.856Z,22.40
2023-05-06T16:45:33.497Z,22.20
2023-05-06T16:48:00.249Z,21.90
2023-05-06T16:50:27.028Z,22.00
2023-05-06T16:52:53.991Z,21.70
2023-05-06T16:55:21.851Z,21.80
2023-05-06T16:57:48.749Z,21.40
2023-05-06T17:00:16.377Z,21.40
2023-05-06T17:02:43.114Z,20.90
2023-05-06T17:05:09.892Z,20.90
2023-05-06T17:07:36.487Z,20.60
2023-05-06T17:10:03.565Z,20.30
2023-05-06T17:12:31.473Z,19.90
2023-05-06T17:14:58.145Z,20.00
2023-05-06T17:17:28.390Z,19.70
2023-05-06T17:19:57.333Z,19.50
2023-05-06T17:22:26.325Z,19.10
2023-05-06T17:24:53.306Z,18.70
2023-05-06T17:27:19.925Z,18.70
2023-05-06T17:29:46.649Z,18.80
2023-05-06T17:32:13.339Z,18.90
2023-05-06T17:34:39.978Z,19.10
2023-05-06T17:37:06.976Z,19.30
2023-05-06T17:39:33.948Z,19.30
2023-05-06T17:42:02.477Z,19.20
2023-05-06T17:44:29.146Z,18.80
2023-05-06T17:46:56.004Z,18.70
2023-05-06T17:49:23.201Z,18.50
2023-05-06T17:51:51.016Z,18.30
2023-05-06T17:54:18.182Z,18.20
2023-05-06T17:56:50.632Z,18.30
2023-05-06T17:59:19.102Z,18.00
2023-05-06T18:01:46.386Z,18.00
2023-05-06T18:04:13.391Z,17.70
2023-05-06T18:06:41.615Z,17.50
2023-05-06T18:09:09.018Z,17.20
2023-05-06T18:11:37.206Z,17.00
2023-05-06T18:14:04.369Z,17.00
2023-05-06T18:16:31.391Z,16.80
2023-05-06T18:18:58.148Z,16.80
2023-05-06T18:21:24.905Z,16.60
2023-05-06T18:23:55.708Z,16.50
2023-05-06T18:26:39.799Z,16.40
2023-05-06T18:29:10.551Z,16.20
2023-05-06T18:31:37.164Z,16.10
2023-05-06T18:34:03.811Z,16.00
2023-05-06T18:36:30.929Z,15.80
2023-05-06T18:38:57.555Z,15.70
2023-05-06T18:41:24.979Z,15.60
2023-05-06T18:43:51.641Z,15.40
2023-05-06T18:46:18.414Z,15.40
2023-05-06T18:48:45.756Z,15.40
2023-05-06T18:51:13.708Z,15.30
2023-05-06T18:53:40.963Z,15.20
2023-05-06T18:56:08.655Z,15.10
2023-05-06T18:58:37.064Z,15.00
2023-05-06T19:01:07.953Z,15.00
2023-05-06T19:03:35.526Z,14.90
2023-05-06T19:06:04.177Z,14.80
2023-05-06T19:08:31.592Z,14.80
2023-05-06T19:11:02.368Z,14.70
2023-05-06T19:13:29.229Z,14.70
2023-05-06T19:15:57.010Z,14.60
2023-05-06T19:18:23.817Z,14.50
2023-05-06T19:20:50.606Z,14.30
2023-05-06T19:23:17.252Z,14.20
2023-05-06T19:25:43.949Z,14.10
2023-05-06T19:28:10.609Z,14.10
2023-05-06T19:30:37.351Z,14.00
2023-05-06T19:33:04.558Z,14.00
2023-05-06T19:35:31.420Z,14.00
2023-05-06T19:37:58.836Z,13.90
2023-05-06T19:40:25.525Z,13.80
2023-05-06T19:42:52.519Z,13.80
2023-05-06T19:45:19.596Z,13.60
2023-05-06T19:47:46.432Z,13.60
2023-05-06T19:50:13.416Z,13.70
2023-05-06T19:52:40.429Z,13.60
2023-05-06T19:55:07.513Z,13.60
2023-05-06T19:57:34.181Z,13.60
2023-05-06T20:00:05.100Z,13.60
2023-05-06T20:02:32.786Z,13.60
2023-05-06T20:05:00.463Z,13.60
2023-05-06T20:07:27.479Z,13.60
2023-05-06T20:09:55.740Z,13.50
2023-05-06T20:12:26.353Z,13.50
2023-05-06T20:14:56.559Z,13.40
2023-05-06T20:17:23.941Z,13.40
2023-05-06T20:19:50.687Z,13.40
2023-05-06T20:22:17.398Z,13.30
2023-05-06T20:24:44.861Z,13.20
2023-05-06T20:27:11.540Z,13.10
2023-05-06T20:29:38.132Z,13.10
2023-05-06T20:32:05.236Z,13.10
2023-05-06T20:34:32.076Z,13.00
2023-05-06T20:36:59.794Z,13.00
2023-05-06T20:39:26.391Z,13.00
2023-05-06T20:41:53.042Z,13.00
2023-05-06T20:44:19.683Z,12.90
2023-05-06T20:46:46.262Z,12.90
2023-05-06T20:49:40.828Z,12.90
2023-05-06T20:52:07.988Z,12.80
2023-05-06T20:54:34.954Z,12.80
2023-05-06T20:57:02.396Z,12.80
2023-05-06T20:59:29.510Z,12.80
2023-05-06T21:01:56.424Z,12.80
2023-05-06T21:04:23.161Z,12.80
2023-05-06T21:06:49.874Z,12.80
2023-05-06T21:09:17.615Z,12.80
2023-05-06T21:11:44.613Z,12.80
2023-05-06T21:14:11.898Z,12.80
2023-05-06T21:16:39.942Z,12.80
2023-05-06T21:19:07.132Z,12.70
2023-05-06T21:21:33.874Z,12.70
2023-05-06T21:24:01.007Z,12.70
2023-05-06T21:26:27.642Z,12.70
2023-05-06T21:28:54.308Z,12.70
2023-05-06T21:31:22.205Z,12.70
2023-05-06T21:33:53.580Z,12.60
2023-05-06T21:36:20.676Z,12.50
2023-05-06T21:39:01.091Z,12.50
2023-05-06T21:41:28.086Z,12.60
2023-05-06T21:43:54.831Z,12.40
2023-05-06T21:46:21.497Z,12.40
2023-05-06T21:48:48.115Z,12.30
2023-05-06T21:51:14.763Z,12.30
2023-05-06T21:53:41.356Z,12.30
2023-05-06T21:56:07.965Z,12.20
2023-05-06T21:58:34.574Z,12.30
2023-05-06T22:01:01.219Z,12.30
2023-05-06T22:03:27.946Z,12.20
2023-05-06T22:05:54.688Z,12.20
2023-05-06T22:08:21.266Z,12.20
2023-05-06T22:10:47.898Z,12.10
2023-05-06T22:13:14.581Z,12.10
2023-05-06T22:15:41.718Z,12.10
2023-05-06T22:18:08.653Z,12.10
2023-05-06T22:20:36.874Z,12.00
2023-05-06T22:23:04.384Z,12.00
2023-05-06T22:25:30.996Z,12.00
2023-05-06T22:27:57.617Z,12.00
2023-05-06T22:30:24.241Z,11.90
2023-05-06T22:32:50.880Z,11.90
2023-05-06T22:35:17.781Z,11.80
2023-05-06T22:37:45.140Z,11.70
2023-05-06T22:40:12.335Z,11.70
2023-05-06T22:42:38.967Z,11.60
2023-05-06T22:45:06.740Z,11.50
2023-05-06T22:47:33.478Z,11.40
2023-05-06T22:50:00.122Z,11.30
2023-05-06T22:52:26.795Z,11.30
2023-05-06T22:54:54.040Z,11.30
2023-05-06T22:57:23.115Z,11.20
2023-05-06T22:59:49.797Z,11.10
2023-05-06T23:02:16.556Z,11.10
2023-05-06T23:04:43.201Z,11.00
2023-05-06T23:07:16.189Z,11.00
2023-05-06T23:09:42.793Z,10.90
2023-05-06T23:12:09.443Z,10.90
2023-05-06T23:14:36.069Z,10.90
2023-05-06T23:17:02.685Z,10.80
2023-05-06T23:19:29.318Z,10.80
2023-05-06T23:21:56.309Z,10.70
2023-05-06T23:24:22.898Z,10.80
2023-05-06T23:26:49.538Z,10.70
2023-05-06T23:29:16.171Z,10.70
2023-05-06T23:31:42.828Z,10.70
2023-05-06T23:34:35.045Z,10.70
2023-05-06T23:37:01.672Z,10.60
2023-05-06T23:39:28.312Z,10.70
2023-05-06T23:41:54.923Z,10.70
2023-05-06T23:44:21.597Z,10.70
2023-05-06T23:46:48.256Z,10.70
2023-05-06T23:49:15.216Z,10.80
2023-05-06T23:51:41.918Z,10.70
2023-05-06T23:54:08.747Z,10.70
2023-05-06T23:56:35.945Z,10.70
2023-05-06T23:59:02.653Z,10.70
